Time;durP1;ratioP1;P1;durP2;ratioP2;P2;SDS_P1;SDS_P2;PMS_P1;PMS_P2;Temp;Humidity;BMP_temperature;BMP_pressure;BME280_temperature;BME280_humidity;BME280_pressure;Samples;Min_cycle;Max_cycle;Signal;HPM_P1;HPM_P2
2024/03/29 03:23:06;;;;;;;0.20;0.10;;;8.70;99.90;;;;;;4074130;29;20336;-95
2024/03/29 03:26:12;;;;;;;2.28;0.43;;;8.70;99.90;;;;;;4060742;29;20545;-94
2024/03/29 03:29:04;;;;;;;1.20;0.10;;;8.50;99.90;;;;;;4079948;29;20238;-96
2024/03/29 03:31:31;;;;;;;7.03;0.77;;;8.70;99.90;;;;;;4074659;29;20232;-96
2024/03/29 03:33:35;;;;;;;1.00;0.33;;;8.60;99.90;;;;;;4063364;29;20204;-96
2024/03/29 03:35:53;;;;;;;0.93;0.65;;;8.50;99.90;;;;;;4081006;29;20172;-96
2024/03/29 03:38:11;;;;;;;3.50;0.57;;;8.60;99.90;;;;;;4064412;29;20233;-94
2024/03/29 03:40:16;;;;;;;0.33;0.23;;;8.70;99.90;;;;;;4063186;29;20197;-95
2024/03/29 03:42:51;;;;;;;0.98;0.30;;;8.60;99.90;;;;;;4083066;29;20538;-95
2024/03/29 03:45:08;;;;;;;;;;;;;;;;;;;;;
2024/03/29 03:47:24;;;;;;;0.97;0.33;;;8.70;99.90;;;;;;4065494;29;20216;-96
2024/03/29 03:49:29;;;;;;;3.88;0.30;;;8.70;99.90;;;;;;4235597;23;20211;-95
2024/03/29 03:52:03;;;;;;;0.75;0.30;;;8.80;99.90;;;;;;4065310;29;20204;-95
2024/03/29 03:54:35;;;;;;;0.63;0.20;;;8.80;99.90;;;;;;4102389;23;20276;-96
2024/03/29 03:57:48;;;;;;;1.17;0.40;;;8.80;99.90;;;;;;4075899;29;20521;-94
2024/03/29 03:59:52;;;;;;;1.85;0.20;;;8.70;99.90;;;;;;4045698;29;20672;-95
2024/03/29 04:05:31;;;;;;;2.47;0.85;;;8.60;99.90;;;;;;4041086;29;20285;-95
2024/03/29 04:08:26;;;;;;;0.20;0.10;;;8.80;99.90;;;;;;4063877;29;20282;-96
2024/03/29 04:11:05;;;;;;;1.77;0.43;;;8.80;99.90;;;;;;4027858;29;20260;-95
2024/03/29 04:13:31;;;;;;;0.52;0.30;;;9.00;99.90;;;;;;4035248;29;20202;-95
2024/03/29 04:16:18;;;;;;;3.40;0.40;;;9.10;99.90;;;;;;4043900;29;20190;-96
2024/03/29 04:32:27;;;;;;;0.40;0.20;;;8.90;99.90;;;;;;4020492;29;20202;-95
2024/03/29 04:34:36;;;;;;;0.95;0.10;;;8.90;99.90;;;;;;4020994;29;20179;-96
2024/03/29 04:36:52;;;;;;;0.68;0.10;;;9.00;99.90;;;;;;4019289;29;20175;-94
2024/03/29 04:38:55;;;;;;;0.00;0.00;;;8.90;99.90;;;;;;4019065;29;20191;-95
2024/03/29 04:41:21;;;;;;;0.52;0.05;;;8.70;99.90;;;;;;4153296;23;20245;-96
2024/03/29 04:44:11;;;;;;;0.43;0.10;;;8.80;99.90;;;;;;4051350;29;20185;-95
2024/03/29 04:46:19;;;;;;;0.03;0.03;;;8.80;99.90;;;;;;4021612;29;20681;-96
2024/03/29 04:48:41;;;;;;;0.38;0.10;;;8.80;99.90;;;;;;4021463;29;20181;-96
2024/03/29 04:50:44;;;;;;;0.20;0.10;;;8.60;99.90;;;;;;4114910;23;20574;-96
2024/03/29 04:53:07;;;;;;;0.47;0.10;;;8.70;99.90;;;;;;4077750;29;20184;-95
2024/03/29 04:55:29;;;;;;;1.08;0.22;;;8.70;99.90;;;;;;4066760;29;20196;-96
2024/03/29 04:58:18;;;;;;;0.25;0.10;;;8.80;99.90;;;;;;4078235;29;20212;-96
2024/03/29 05:00:50;;;;;;;0.08;0.00;;;8.90;99.90;;;;;;4075393;29;20208;-95
2024/03/29 05:03:39;;;;;;;0.10;0.00;;;9.00;99.90;;;;;;4062702;29;20213;-96
2024/03/29 05:06:17;;;;;;;0.00;0.00;;;9.10;99.90;;;;;;4065284;29;20185;-95
2024/03/29 05:08:38;;;;;;;0.38;0.10;;;9.10;99.90;;;;;;4082797;29;20171;-96
2024/03/29 05:13:08;;;;;;;7.43;0.28;;;8.70;99.90;;;;;;4062969;29;20239;-96
2024/03/29 05:15:18;;;;;;;0.52;0.10;;;8.70;99.90;;;;;;4066251;29;20188;-96
2024/03/29 05:20:14;;;;;;;0.00;0.00;;;8.80;99.90;;;;;;4081872;29;20216;-95
2024/03/29 05:22:27;;;;;;;0.20;0.10;;;8.90;99.90;;;;;;4096760;29;20171;-96
2024/03/29 05:24:43;;;;;;;0.00;0.00;;;8.90;99.90;;;;;;4077155;29;20172;-96
2024/03/29 05:27:11;;;;;;;0.00;0.00;;;8.80;99.90;;;;;;4083068;28;20167;-96
2024/03/29 05:29:43;;;;;;;0.10;0.00;;;8.80;99.90;;;;;;4083015;29;20303;-96
2024/03/29 05:32:11;;;;;;;1.30;0.20;;;8.90;99.90;;;;;;4063665;29;20195;-96
2024/03/29 05:34:13;;;;;;;0.80;0.10;;;9.10;99.90;;;;;;4078984;29;20196;-95
2024/03/29 05:36:19;;;;;;;0.10;0.10;;;9.10;99.90;;;;;;4068340;29;20203;-95
2024/03/29 05:38:47;;;;;;;1.73;0.00;;;9.20;99.90;;;;;;4080531;29;20192;-95
2024/03/29 05:40:59;;;;;;;0.00;0.00;;;9.00;99.90;;;;;;4164253;23;20217;-95
2024/03/29 05:48:42;;;;;;;0.10;0.00;;;8.80;99.90;;;;;;4032067;29;20316;-96
2024/03/29 05:51:07;;;;;;;0.40;0.10;;;8.70;99.90;;;;;;4019109;29;20681;-94
2024/03/29 05:53:35;;;;;;;0.63;0.00;;;8.70;99.90;;;;;;4035804;29;20181;-96
2024/03/29 05:56:05;;;;;;;0.30;0.10;;;8.80;99.90;;;;;;4020025;29;20227;-96
2024/03/29 05:58:16;;;;;;;0.00;0.00;;;9.00;99.90;;;;;;4055380;23;20240;-94
2024/03/29 06:01:12;;;;;;;0.15;0.10;;;8.80;99.90;;;;;;4074071;29;20307;-95
2024/03/29 06:03:20;;;;;;;0.10;0.00;;;8.90;99.90;;;;;;4128752;23;20232;-94
2024/03/29 06:05:59;;;;;;;0.08;0.00;;;8.90;99.90;;;;;;4078907;29;20184;-94
2024/03/29 11:08:47;;;;;;;0.63;0.15;;;13.80;99.90;;;;;;4067685;29;20238;-95
2024/03/29 11:10:53;;;;;;;0.15;0.10;;;13.80;99.90;;;;;;4064091;29;20203;-94
2024/03/29 11:13:23;;;;;;;0.13;0.00;;;14.10;99.90;;;;;;4086548;29;20176;-94
2024/03/29 11:15:40;;;;;;;0.30;0.20;;;13.90;99.90;;;;;;4056906;29;20216;-95
2024/03/29 11:17:44;;;;;;;0.30;0.10;;;14.00;99.90;;;;;;4086862;29;20178;-94
2024/03/29 11:19:47;;;;;;;0.90;0.32;;;14.20;99.90;;;;;;4087976;29;20742;-94
2024/03/29 11:21:53;;;;;;;0.35;0.10;;;14.20;99.90;;;;;;4056260;29;20199;-94
2024/03/29 11:23:57;;;;;;;0.10;0.00;;;14.20;99.90;;;;;;4087890;29;20184;-94
2024/03/29 11:29:42;;;;;;;0.20;0.10;;;14.60;99.90;;;;;;4015828;29;20211;-95
2024/03/29 11:35:50;;;;;;;0.10;0.10;;;14.90;99.90;;;;;;3956228;30;20313;-96
2024/03/29 15:29:57;;;;;;;0.88;0.28;;;14.50;99.90;;;;;;4001996;29;20229;-96
2024/03/29 15:33:01;;;;;;;0.93;0.10;;;14.80;99.90;;;;;;3996426;29;20243;-96
2024/03/29 15:35:31;;;;;;;;;;;;;;;;;;;;;
2024/03/29 15:38:58;;;;;;;;;;;;;;;;;;;;;
2024/03/29 16:02:58;;;;;;;0.20;0.10;;;14.40;99.90;;;;;;3909066;30;20198;-95
2024/03/29 16:09:45;;;;;;;0.47;0.20;;;14.40;99.90;;;;;;3899395;30;20281;-94
2024/03/29 16:12:44;;;;;;;1.67;0.10;;;14.60;99.90;;;;;;3882219;30;20307;-95
2024/03/29 16:15:20;;;;;;;2.80;0.20;;;14.40;99.90;;;;;;3893891;30;20196;-95
2024/03/29 16:18:08;;;;;;;0.90;0.30;;;14.50;99.90;;;;;;3929014;30;20633;-95
2024/03/29 16:25:30;;;;;;;;;;;;;;;;;;;;;
2024/03/29 16:27:55;;;;;;;0.30;0.20;;;14.70;99.90;;;;;;3879692;30;20189;-96
2024/03/29 16:31:21;;;;;;;;;;;;;;;;;;;;;
2024/03/29 16:42:04;;;;;;;1.15;0.50;;;14.60;99.90;;;;;;3830294;31;20261;-96
2024/03/29 16:45:04;;;;;;;;;;;;;;;;;;;;;
2024/03/29 16:51:12;;;;;;;;;;;;;;;;;;;;;
2024/03/29 16:53:30;;;;;;;0.38;0.17;;;14.20;99.90;;;;;;3924766;30;20308;-94
2024/03/29 16:56:45;;;;;;;;;;;;;;;;;;;;;
2024/03/29 16:59:33;;;;;;;0.80;0.30;;;14.10;99.90;;;;;;4038454;29;20194;-95
2024/03/29 17:02:59;;;;;;;4.10;0.55;;;14.00;99.90;;;;;;4071783;29;20188;-96
2024/03/29 17:05:24;;;;;;;0.77;0.63;;;14.00;99.90;;;;;;4055606;29;20215;-95
2024/03/29 17:08:24;;;;;;;3.22;0.28;;;14.00;99.90;;;;;;4067967;29;20188;-96
2024/03/29 17:17:17;;;;;;;0.73;0.30;;;14.10;99.90;;;;;;4023769;29;20189;-96
2024/03/29 17:30:11;;;;;;;2.55;0.75;;;14.00;99.90;;;;;;3957291;29;20224;-95
2024/03/29 17:37:05;;;;;;;;;;;;;;;;;;;;;
